Time;durP1;ratioP1;P1;durP2;ratioP2;P2;SDS_P1;SDS_P2;PMS_P1;PMS_P2;Temp;Humidity;BMP_temperature;BMP_pressure;BME280_temperature;BME280_humidity;BME280_pressure;Samples;Min_cycle;Max_cycle;Signal;HPM_P1;HPM_P2
2021/04/23 00:00:48;;;;;;;14.27;3.40;;;;;;;3.96;73.90;100765.63;115410;1199;23127;-79
2021/04/23 00:03:24;;;;;;;14.90;2.35;;;;;;;3.97;73.96;100758.88;115346;1200;28478;-79
2021/04/23 00:05:56;;;;;;;12.67;2.17;;;;;;;3.97;74.00;100769.92;115343;1202;26191;-79
2021/04/23 00:08:24;;;;;;;15.23;2.53;;;;;;;3.95;73.96;100766.05;115237;1199;27153;-79
2021/04/23 00:10:54;;;;;;;16.55;2.25;;;;;;;3.97;74.06;100756.11;115094;1203;23124;-79
2021/04/23 00:13:23;;;;;;;12.00;2.40;;;;;;;3.98;74.11;100754.93;115249;1203;27265;-78
2021/04/23 00:15:52;;;;;;;14.20;2.20;;;;;;;3.99;74.36;100756.47;115186;1199;23121;-79
2021/04/23 00:18:21;;;;;;;11.40;1.80;;;;;;;4.02;74.34;100763.94;115289;1200;23160;-78
2021/04/23 00:20:50;;;;;;;10.55;2.35;;;;;;;4.02;74.33;100758.41;115362;1200;23131;-78
2021/04/23 00:23:19;;;;;;;11.10;2.30;;;;;;;4.05;74.38;100760.34;115229;1200;24759;-78
2021/04/23 00:25:47;;;;;;;15.00;3.05;;;;;;;4.08;74.45;100747.64;115236;1203;23124;-78
2021/04/23 00:28:17;;;;;;;15.85;3.55;;;;;;;4.09;74.47;100752.77;115138;1199;23420;-79
2021/04/23 00:30:48;;;;;;;18.85;4.60;;;;;;;4.11;74.42;100757.86;115247;1199;23102;-77
2021/04/23 00:33:17;;;;;;;18.35;3.35;;;;;;;4.14;74.37;100759.00;115231;1200;26015;-78
2021/04/23 00:35:49;;;;;;;18.10;3.67;;;;;;;4.15;74.47;100764.09;115486;1199;23162;-77
2021/04/23 00:38:21;;;;;;;18.77;3.73;;;;;;;4.19;74.54;100762.05;115191;1203;26157;-78
2021/04/23 00:40:53;;;;;;;18.65;3.00;;;;;;;4.22;74.67;100768.72;115232;1199;23125;-78
2021/04/23 00:43:23;;;;;;;11.90;2.75;;;;;;;4.24;74.51;100760.78;115224;1203;23142;-78
2021/04/23 00:45:53;;;;;;;11.15;2.45;;;;;;;4.25;74.46;100765.09;115245;1199;24775;-78
2021/04/23 00:48:22;;;;;;;16.77;3.83;;;;;;;4.28;74.68;100761.50;115301;1200;24759;-77
2021/04/23 00:50:54;;;;;;;14.00;3.10;;;;;;;4.29;74.69;100768.56;115339;1200;23118;-79
2021/04/23 00:53:26;;;;;;;18.40;3.95;;;;;;;4.30;74.69;100765.41;115296;1199;26150;-78
2021/04/23 00:55:58;;;;;;;17.23;4.50;;;;;;;4.33;75.10;100769.28;115190;1199;26150;-77
2021/04/23 00:58:28;;;;;;;13.73;3.23;;;;;;;4.33;74.90;100778.36;115177;1200;23124;-77
2021/04/23 01:01:01;;;;;;;16.33;2.97;;;;;;;4.27;75.61;100776.50;115340;1200;23177;-78
2021/04/23 01:03:30;;;;;;;9.80;1.90;;;;;;;4.18;75.74;100777.05;115254;1203;23128;-78
2021/04/23 01:06:03;;;;;;;12.45;2.10;;;;;;;4.12;76.01;100775.98;115156;1200;23373;-77
2021/04/23 01:08:32;;;;;;;14.10;2.20;;;;;;;4.08;75.83;100775.27;115324;1200;23610;-78
2021/04/23 01:11:03;;;;;;;12.35;2.95;;;;;;;4.07;75.93;100774.52;115146;1199;27325;-78
2021/04/23 01:13:32;;;;;;;14.10;2.70;;;;;;;4.06;76.18;100774.91;115172;1199;23131;-77
2021/04/23 01:16:03;;;;;;;15.40;3.35;;;;;;;4.05;76.18;100779.68;115247;1199;23197;-77
2021/04/23 01:18:30;;;;;;;;;;;;;;;4.05;76.53;100776.13;115312;1200;26201;-78
2021/04/23 01:21:05;;;;;;;14.15;2.60;;;;;;;4.03;76.56;100765.48;115243;1202;21781;-79
2021/04/23 01:23:34;;;;;;;11.90;2.40;;;;;;;4.04;76.35;100763.50;115187;1200;23148;-78
2021/04/23 01:26:04;;;;;;;12.77;2.37;;;;;;;4.04;76.81;100769.03;115174;1200;23138;-78
2021/04/23 01:28:33;;;;;;;12.80;2.97;;;;;;;4.05;76.65;100768.63;115329;1202;23434;-79
2021/04/23 01:31:04;;;;;;;10.90;2.13;;;;;;;4.06;76.79;100769.38;115249;1202;23269;-78
2021/04/23 01:33:34;;;;;;;12.40;3.65;;;;;;;4.07;76.80;100771.75;115275;1202;24848;-78
2021/04/23 01:36:02;;;;;;;12.87;2.83;;;;;;;4.08;76.78;100778.03;115233;1199;23517;-79
2021/04/23 01:38:30;;;;;;;15.55;2.60;;;;;;;4.07;76.65;100771.75;115201;1199;23122;-79
2021/04/23 01:40:59;;;;;;;12.73;3.10;;;;;;;4.08;76.92;100769.74;115275;1202;23127;-78
2021/04/23 01:43:28;;;;;;;18.47;3.40;;;;;;;4.08;76.97;100767.77;115238;1200;26185;-78
2021/04/23 01:45:56;;;;;;;18.20;4.35;;;;;;;4.09;77.01;100769.34;115440;1200;26018;-78
2021/04/23 01:48:25;;;;;;;15.77;3.87;;;;;;;4.10;77.02;100770.10;115249;1200;23115;-78
2021/04/23 01:50:54;;;;;;;15.07;3.80;;;;;;;4.09;77.25;100772.11;115298;1201;23118;-79
2021/04/23 01:53:22;;;;;;;19.90;5.13;;;;;;;4.09;77.37;100769.34;115173;1200;23150;-78
2021/04/23 01:55:51;;;;;;;20.40;4.65;;;;;;;4.11;77.27;100768.91;115281;1200;23234;-79
2021/04/23 01:58:19;;;;;;;16.60;3.40;;;;;;;4.12;77.41;100769.70;115164;1202;26198;-78
2021/04/23 02:00:52;;;;;;;18.05;4.05;;;;;;;4.13;77.31;100780.32;115246;1200;26191;-78
2021/04/23 02:03:20;;;;;;;17.80;3.60;;;;;;;4.14;77.38;100779.10;115305;1200;24091;-78
2021/04/23 02:05:51;;;;;;;16.25;2.80;;;;;;;4.17;77.57;100780.25;115184;1200;24762;-79
2021/04/23 02:08:22;;;;;;;15.75;3.40;;;;;;;4.18;77.53;100770.77;115213;1200;23122;-78
2021/04/23 02:10:55;;;;;;;13.65;3.10;;;;;;;4.19;77.40;100781.39;115378;1200;26201;-79
2021/04/23 02:13:26;;;;;;;14.10;4.10;;;;;;;4.21;77.30;100786.48;115193;1200;23823;-78
2021/04/23 02:15:53;;;;;;;;;;;;;;;4.23;77.27;100786.84;115237;1206;23237;-78
2021/04/23 02:18:23;;;;;;;15.37;3.87;;;;;;;4.22;77.47;100779.77;115251;1200;21746;-78
2021/04/23 02:20:51;;;;;;;15.60;2.93;;;;;;;;;;115278;1200;27367;-79
2021/04/23 02:23:20;;;;;;;16.23;4.27;;;;;;;4.25;77.38;100789.97;115204;1198;26301;-78
2021/04/23 02:25:51;;;;;;;17.20;5.00;;;;;;;4.24;77.29;100789.21;115235;1200;23275;-78
2021/04/23 02:28:20;;;;;;;18.13;3.37;;;;;;;4.25;77.39;100795.50;115232;1202;23472;-79
2021/04/23 02:30:56;;;;;;;20.05;3.50;;;;;;;4.27;77.44;100790.32;115484;1200;23858;-78
2021/04/23 02:33:26;;;;;;;15.60;4.17;;;;;;;4.27;77.30;100793.09;115374;1200;23186;-78
2021/04/23 02:35:57;;;;;;;16.30;4.00;;;;;;;4.27;77.62;100788.34;115269;1200;25981;-78
2021/04/23 02:38:26;;;;;;;16.10;3.73;;;;;;;4.27;77.60;100788.34;115296;1200;23151;-79
2021/04/23 02:40:56;;;;;;;15.70;4.80;;;;;;;4.28;77.57;100794.66;115351;1202;23115;-78
2021/04/23 02:43:27;;;;;;;16.33;3.13;;;;;;;4.29;77.79;100797.00;115361;1199;23200;-79
2021/04/23 02:45:58;;;;;;;19.00;3.50;;;;;;;4.31;77.67;100796.56;115255;1199;23128;-79
2021/04/23 02:48:29;;;;;;;17.80;4.15;;;;;;;4.32;77.61;100798.14;115197;1200;23118;-79
2021/04/23 02:51:02;;;;;;;18.45;3.55;;;;;;;4.34;77.52;100795.73;115188;1200;23122;-79
2021/04/23 02:53:30;;;;;;;11.00;2.00;;;;;;;4.33;77.85;100803.23;115275;1199;23115;-78
2021/04/23 02:56:00;;;;;;;17.20;2.70;;;;;;;4.36;77.55;100796.09;115136;1199;23116;-78
2021/04/23 02:58:28;;;;;;;20.90;3.85;;;;;;;4.36;77.65;100802.41;115154;1199;24571;-78
2021/04/23 03:01:00;;;;;;;16.65;3.20;;;;;;;4.38;77.69;100801.97;115220;1200;24753;-78
2021/04/23 03:03:29;;;;;;;12.50;3.40;;;;;;;4.37;77.73;100800.40;115587;1202;23118;-78
2021/04/23 03:05:58;;;;;;;21.10;3.60;;;;;;;4.36;77.53;100804.38;115769;1200;26246;-78
2021/04/23 03:08:27;;;;;;;18.35;3.75;;;;;;;4.36;77.71;100798.85;115523;1200;23298;-78
2021/04/23 03:10:57;;;;;;;19.85;4.00;;;;;;;4.35;77.95;100794.52;115228;1202;23819;-79
2021/04/23 03:13:26;;;;;;;;;;;;;;;4.34;77.68;100796.52;115280;1204;24584;-79
2021/04/23 03:15:57;;;;;;;15.30;3.50;;;;;;;4.34;77.77;100801.26;115448;1199;21607;-77
2021/04/23 03:18:28;;;;;;;18.57;4.67;;;;;;;4.34;77.67;100801.26;115405;1199;23653;-79
2021/04/23 03:20:59;;;;;;;14.90;3.10;;;;;;;4.34;77.74;100802.05;115295;1200;26196;-78
2021/04/23 03:23:27;;;;;;;16.40;2.90;;;;;;;4.33;77.72;100806.00;115426;1199;25782;-78
2021/04/23 03:25:59;;;;;;;10.75;2.15;;;;;;;4.32;77.89;100812.75;115180;1202;23156;-78
2021/04/23 03:28:28;;;;;;;14.80;2.90;;;;;;;4.32;78.14;100818.28;115188;1203;23114;-78
2021/04/23 03:30:57;;;;;;;14.15;2.35;;;;;;;4.29;78.20;100816.34;115239;1199;23222;-78
2021/04/23 03:33:25;;;;;;;15.97;3.00;;;;;;;4.27;78.14;100817.96;115174;1203;23100;-78
2021/04/23 03:35:56;;;;;;;15.70;2.50;;;;;;;4.26;78.49;100816.41;115144;1200;23123;-78
2021/04/23 03:38:26;;;;;;;15.30;4.00;;;;;;;4.24;77.99;100821.59;115211;1200;23165;-78
2021/04/23 03:40:55;;;;;;;15.93;3.37;;;;;;;4.23;78.07;100820.02;115339;1200;23160;-79
2021/04/23 03:43:23;;;;;;;16.40;3.00;;;;;;;4.23;78.31;100814.48;115189;1200;24047;-78
2021/04/23 03:45:53;;;;;;;14.50;2.85;;;;;;;4.22;78.41;100815.70;115224;1199;26028;-79
2021/04/23 03:48:21;;;;;;;17.53;2.67;;;;;;;4.21;78.26;100812.15;115341;1200;25984;-78
2021/04/23 03:50:50;;;;;;;17.03;2.73;;;;;;;4.22;78.46;100807.41;115243;1200;23133;-79
2021/04/23 03:53:18;;;;;;;16.95;2.80;;;;;;;4.23;78.33;100812.51;115346;1200;27256;-77
2021/04/23 03:55:50;;;;;;;18.60;2.80;;;;;;;4.22;78.34;100819.22;115308;1200;26200;-78
2021/04/23 03:58:21;;;;;;;15.25;3.20;;;;;;;4.23;78.47;100814.48;115131;1203;24758;-78
2021/04/23 04:00:51;;;;;;;20.30;3.00;;;;;;;4.25;78.13;100823.92;115172;1201;28392;-79
2021/04/23 04:03:20;;;;;;;15.90;2.83;;;;;;;4.24;78.48;100829.88;115246;1198;27268;-79
2021/04/23 04:05:49;;;;;;;17.35;3.60;;;;;;;4.26;78.38;100833.00;115224;1202;26185;-78
2021/04/23 04:08:18;;;;;;;10.20;2.10;;;;;;;4.25;78.36;100828.66;115410;1199;23144;-78
2021/04/23 04:10:47;;;;;;;18.80;2.90;;;;;;;4.27;78.17;100823.48;115272;1199;26058;-79
2021/04/23 04:13:17;;;;;;;14.50;2.30;;;;;;;4.28;78.46;100838.88;115365;1200;23112;-79
2021/04/23 04:15:46;;;;;;;18.20;3.20;;;;;;;4.28;78.40;100834.14;115398;1200;26272;-79
2021/04/23 04:18:16;;;;;;;12.50;2.80;;;;;;;4.29;78.44;100834.91;115334;1199;23128;-79
2021/04/23 04:20:47;;;;;;;17.00;2.53;;;;;;;4.29;78.69;100837.66;115224;1202;23252;-80
2021/04/23 04:23:18;;;;;;;15.90;1.95;;;;;;;4.30;78.43;100833.72;115333;1200;23147;-78
2021/04/23 04:25:50;;;;;;;13.77;2.47;;;;;;;4.32;78.53;100840.39;115315;1200;23122;-79
2021/04/23 04:28:19;;;;;;;15.60;3.00;;;;;;;4.33;78.48;100846.67;115226;1202;24845;-80
2021/04/23 04:30:48;;;;;;;12.93;3.37;;;;;;;4.34;78.58;100851.80;115263;1200;23394;-77
2021/04/23 04:33:17;;;;;;;12.50;3.45;;;;;;;4.35;78.46;100844.27;115225;1200;23879;-79
2021/04/23 04:35:46;;;;;;;14.50;3.10;;;;;;;4.36;78.79;100863.22;115150;1199;23112;-79
2021/04/23 04:38:15;;;;;;;15.07;3.50;;;;;;;4.37;78.59;100863.97;115203;1199;23131;-79
2021/04/23 04:40:46;;;;;;;13.73;3.93;;;;;;;4.39;78.78;100858.80;115202;1200;23128;-79
2021/04/23 04:43:17;;;;;;;23.60;6.95;;;;;;;4.42;78.64;100863.50;115285;1200;23190;-80
2021/04/23 04:45:46;;;;;;;27.60;9.43;;;;;;;4.43;78.81;100851.26;115272;1199;26124;-79
2021/04/23 04:48:15;;;;;;;22.07;8.50;;;;;;;4.45;78.50;100860.67;115356;1200;27262;-78
2021/04/23 04:50:47;;;;;;;22.70;8.20;;;;;;;4.48;78.81;100861.81;115280;1202;23120;-78
2021/04/23 04:53:17;;;;;;;21.45;7.30;;;;;;;4.51;78.70;100864.50;115404;1199;23138;-78
2021/04/23 04:55:48;;;;;;;15.67;4.80;;;;;;;4.54;78.83;100863.67;115679;1199;24809;-79
2021/04/23 04:58:19;;;;;;;17.20;4.95;;;;;;;4.56;78.42;100866.01;115649;1202;23136;-78
2021/04/23 05:00:49;;;;;;;21.10;5.00;;;;;;;4.60;78.55;100863.95;115613;1199;23182;-79
2021/04/23 05:03:18;;;;;;;21.77;5.97;;;;;;;4.64;78.63;100868.22;115400;1199;23253;-78
2021/04/23 05:05:48;;;;;;;22.40;5.40;;;;;;;4.68;78.42;100862.62;115412;1199;24289;-78
2021/04/23 05:08:17;;;;;;;22.05;6.55;;;;;;;4.73;78.69;100868.45;115413;1200;24743;-77
2021/04/23 05:10:47;;;;;;;24.40;6.80;;;;;;;4.77;78.36;100877.47;115608;1199;23982;-77
2021/04/23 05:13:16;;;;;;;19.50;5.50;;;;;;;4.82;78.53;100876.20;115730;1199;24322;-79
2021/04/23 05:15:45;;;;;;;21.20;6.75;;;;;;;4.86;78.37;100877.66;116108;1199;23117;-78
2021/04/23 05:18:13;;;;;;;24.97;6.80;;;;;;;4.92;78.17;100880.74;116099;1199;24115;-79
2021/04/23 05:20:42;;;;;;;20.20;5.63;;;;;;;4.98;78.50;100881.80;116642;1199;23106;-79
2021/04/23 05:23:10;;;;;;;16.33;5.03;;;;;;;5.04;78.28;100884.84;116494;1199;23911;-83
2021/04/23 05:25:39;;;;;;;23.33;5.47;;;;;;;5.10;78.12;100885.91;116581;1199;26281;-82
2021/04/23 05:28:08;;;;;;;20.60;5.10;;;;;;;5.13;78.25;100883.06;116724;1199;23130;-82
2021/04/23 05:30:38;;;;;;;19.40;5.40;;;;;;;5.16;77.90;100884.98;116404;1200;23125;-83
2021/04/23 05:33:09;;;;;;;20.93;4.50;;;;;;;5.20;78.02;100882.92;116629;1199;23170;-80
2021/04/23 05:35:39;;;;;;;23.37;5.47;;;;;;;5.22;77.68;100896.33;115940;1199;23093;-80
2021/04/23 05:38:08;;;;;;;17.23;3.67;;;;;;;5.22;77.46;100902.66;115867;1199;23266;-79
2021/04/23 05:40:43;;;;;;;16.67;4.37;;;;;;;5.22;77.57;100907.41;115941;1199;23281;-82
2021/04/23 05:43:13;;;;;;;18.37;4.57;;;;;;;5.19;77.82;100902.73;115720;1200;24313;-79
2021/04/23 05:45:43;;;;;;;18.18;3.95;;;;;;;5.18;78.08;100903.92;115665;1200;23181;-79
2021/04/23 05:48:12;;;;;;;17.87;4.60;;;;;;;5.19;78.00;100913.81;115835;1200;23154;-79
2021/04/23 05:50:41;;;;;;;16.35;4.10;;;;;;;5.18;77.67;100918.55;115958;1199;23122;-81
2021/04/23 05:53:09;;;;;;;11.10;2.75;;;;;;;5.18;77.61;100907.48;115741;1203;24807;-79
2021/04/23 05:55:39;;;;;;;15.40;3.10;;;;;;;5.19;77.88;100911.04;115775;1199;23319;-79
2021/04/23 05:58:09;;;;;;;18.45;3.45;;;;;;;5.19;77.70;100906.29;115810;1199;23114;-79
2021/04/23 06:00:40;;;;;;;16.08;3.33;;;;;;;5.21;77.63;100908.63;115824;1199;23151;-79
2021/04/23 06:03:07;;;;;;;;;;;;;;;5.22;77.56;100912.94;115818;1206;23122;-79
2021/04/23 06:05:36;;;;;;;11.73;2.40;;;;;;;5.23;77.39;100915.30;115782;1199;24815;-79
2021/04/23 06:08:08;;;;;;;15.80;2.70;;;;;;;5.24;77.04;100916.06;115698;1198;23199;-79
2021/04/23 06:10:37;;;;;;;15.73;2.80;;;;;;;5.27;76.99;100917.98;115708;1203;23142;-79
2021/04/23 06:13:06;;;;;;;13.10;2.80;;;;;;;5.29;76.96;100916.36;115762;1200;23118;-79
2021/04/23 06:15:35;;;;;;;14.80;3.35;;;;;;;5.33;77.00;100911.53;115583;1200;23284;-79
2021/04/23 06:18:04;;;;;;;16.40;3.65;;;;;;;5.38;77.36;100913.78;115601;1200;23174;-80
2021/04/23 06:20:34;;;;;;;15.23;3.58;;;;;;;5.47;77.38;100913.20;115899;1200;23263;-80
2021/04/23 06:23:05;;;;;;;16.60;2.70;;;;;;;5.59;76.95;100907.01;115782;1200;23139;-80
2021/04/23 06:25:34;;;;;;;13.20;2.60;;;;;;;5.67;76.48;100913.95;116150;1199;26798;-81
2021/04/23 06:28:06;;;;;;;16.05;3.23;;;;;;;5.74;76.77;100913.80;116099;1199;24015;-79
2021/04/23 06:30:36;;;;;;;15.80;2.80;;;;;;;5.82;76.70;100919.95;115687;1199;23196;-79
2021/04/23 06:33:13;;;;;;;14.75;2.48;;;;;;;5.90;76.53;100922.17;115705;1199;23172;-79
2021/04/23 06:35:41;;;;;;;18.85;3.15;;;;;;;5.97;76.53;100916.47;115619;1199;23868;-78
2021/04/23 06:38:10;;;;;;;13.80;3.60;;;;;;;6.10;76.68;100922.12;115671;1200;23333;-78
2021/04/23 06:40:39;;;;;;;13.90;3.40;;;;;;;6.16;76.03;100921.17;115702;1200;24781;-79
2021/04/23 06:43:08;;;;;;;14.75;2.90;;;;;;;6.16;75.00;100921.17;115693;1199;23118;-78
2021/04/23 06:45:36;;;;;;;14.10;2.90;;;;;;;6.17;75.30;100922.72;115732;1199;27313;-79
2021/04/23 06:48:09;;;;;;;12.03;2.40;;;;;;;6.22;75.16;100924.20;115730;1203;23274;-78
2021/04/23 06:50:38;;;;;;;13.45;2.90;;;;;;;6.27;75.30;100932.02;115758;1200;27069;-79
2021/04/23 06:53:07;;;;;;;14.25;2.85;;;;;;;6.31;75.15;100933.46;115714;1199;23194;-79
2021/04/23 06:55:36;;;;;;;19.40;2.70;;;;;;;6.39;74.42;100943.16;115994;1199;23104;-79
2021/04/23 06:58:05;;;;;;;21.50;3.90;;;;;;;6.34;74.07;100942.91;115734;1200;23093;-78
2021/04/23 07:00:36;;;;;;;17.97;2.90;;;;;;;6.30;74.56;100943.01;115687;1200;23256;-78
2021/04/23 07:03:06;;;;;;;17.95;3.20;;;;;;;6.27;74.75;100937.56;116110;1199;26018;-78
2021/04/23 07:05:35;;;;;;;15.30;3.33;;;;;;;6.23;74.26;100945.94;115680;1199;27258;-79
2021/04/23 07:08:04;;;;;;;17.13;3.40;;;;;;;6.17;73.75;100950.44;115708;1199;23114;-78
2021/04/23 07:10:33;;;;;;;20.23;3.97;;;;;;;6.09;74.40;100951.03;115838;1200;23152;-78
2021/04/23 07:13:05;;;;;;;19.07;4.33;;;;;;;6.05;74.01;100953.90;115790;1200;23256;-78
2021/04/23 07:15:34;;;;;;;17.95;3.70;;;;;;;6.01;74.24;100957.95;115725;1202;23142;-78
2021/04/23 07:18:03;;;;;;;19.70;4.27;;;;;;;5.99;74.21;100952.85;115738;1200;23137;-78
2021/04/23 07:20:32;;;;;;;20.15;3.80;;;;;;;5.97;74.09;100948.94;115745;1200;27194;-79
2021/04/23 07:23:01;;;;;;;20.55;3.60;;;;;;;5.97;74.23;100948.94;115675;1199;23129;-78
2021/04/23 07:25:30;;;;;;;15.40;4.30;;;;;;;5.95;74.38;100957.70;115698;1200;23118;-79
2021/04/23 07:27:59;;;;;;;15.40;3.45;;;;;;;5.98;74.38;100947.75;115738;1199;23370;-79
2021/04/23 07:30:30;;;;;;;19.53;3.93;;;;;;;6.00;74.09;100957.17;115756;1198;23152;-78
2021/04/23 07:33:00;;;;;;;14.23;3.87;;;;;;;6.05;74.69;100958.66;115781;1199;23719;-78
2021/04/23 07:35:29;;;;;;;15.45;4.10;;;;;;;6.09;74.41;100954.59;115762;1202;23185;-79
2021/04/23 07:37:59;;;;;;;15.97;3.50;;;;;;;6.19;74.25;100958.32;115658;1199;23147;-79
2021/04/23 07:40:28;;;;;;;19.33;3.83;;;;;;;6.27;73.89;100970.83;115957;1199;23117;-78
2021/04/23 07:42:56;;;;;;;20.60;4.20;;;;;;;6.28;74.10;100964.06;115797;1200;24854;-78
2021/04/23 07:45:25;;;;;;;20.10;4.75;;;;;;;6.28;74.04;100973.16;115730;1200;24894;-78
2021/04/23 07:47:54;;;;;;;19.50;5.23;;;;;;;6.26;73.82;100972.03;115676;1199;23852;-78
2021/04/23 07:50:25;;;;;;;19.55;5.05;;;;;;;6.24;74.04;100977.22;115868;1203;23140;-78
2021/04/23 07:52:53;;;;;;;22.70;4.20;;;;;;;6.25;74.35;100978.77;115794;1199;23230;-78
2021/04/23 07:55:24;;;;;;;20.13;6.53;;;;;;;6.27;74.06;100979.91;115753;1199;23111;-78
2021/04/23 07:57:53;;;;;;;;;;;;;;;6.33;74.16;100974.64;115770;1205;23595;-78
2021/04/23 08:00:25;;;;;;;20.37;5.50;;;;;;;6.37;74.27;100984.41;115953;1199;21611;-78
2021/04/23 08:02:54;;;;;;;22.45;5.40;;;;;;;6.41;73.52;100976.03;115808;1200;23186;-78
2021/04/23 08:05:23;;;;;;;23.10;7.17;;;;;;;6.45;73.93;100977.52;115854;1200;23536;-79
2021/04/23 08:07:51;;;;;;;20.60;5.20;;;;;;;6.54;73.89;100987.98;115725;1200;23138;-77
2021/04/23 08:10:21;;;;;;;26.30;6.40;;;;;;;6.61;73.98;100993.36;115740;1200;26064;-77
2021/04/23 08:12:52;;;;;;;22.60;6.35;;;;;;;6.65;73.55;100984.95;115891;1200;23150;-79
2021/04/23 08:15:23;;;;;;;16.00;4.50;;;;;;;6.68;72.81;100990.42;115764;1200;23293;-78
2021/04/23 08:17:53;;;;;;;20.53;4.67;;;;;;;6.69;72.59;100997.52;115661;1200;23125;-78
2021/04/23 08:20:23;;;;;;;23.53;5.33;;;;;;;6.70;72.63;100992.76;116229;1200;23137;-79
2021/04/23 08:22:52;;;;;;;19.35;4.45;;;;;;;6.74;72.41;100993.45;115680;1200;23115;-78
2021/04/23 08:25:22;;;;;;;21.40;4.90;;;;;;;6.84;73.03;101000.72;115743;1199;23911;-78
2021/04/23 08:27:51;;;;;;;24.10;5.50;;;;;;;6.98;72.65;100997.57;115842;1199;23147;-79
2021/04/23 08:30:24;;;;;;;23.10;4.75;;;;;;;7.05;72.06;101000.17;116157;1200;24626;-79
2021/04/23 08:32:53;;;;;;;19.90;5.03;;;;;;;7.07;72.05;101006.07;115749;1199;23135;-80
2021/04/23 08:35:22;;;;;;;17.80;2.70;;;;;;;7.04;70.21;101010.49;115933;1200;23273;-79
2021/04/23 08:37:51;;;;;;;18.65;4.20;;;;;;;6.97;71.15;101010.66;115679;1200;23212;-78
2021/04/23 08:40:21;;;;;;;17.23;4.07;;;;;;;6.95;71.13;100995.69;115942;1199;23254;-77
2021/04/23 08:42:52;;;;;;;26.08;6.30;;;;;;;6.92;71.16;101002.88;115833;1199;23094;-79
2021/04/23 08:45:20;;;;;;;;;;;;;;;6.95;71.21;101015.88;115794;1206;27502;-79
2021/04/23 08:47:50;;;;;;;19.33;3.80;;;;;;;6.92;71.25;101011.21;115837;1200;21674;-79
2021/04/23 08:50:22;;;;;;;23.20;4.73;;;;;;;7.02;71.54;101001.03;115889;1199;23265;-78
2021/04/23 08:52:52;;;;;;;18.35;3.50;;;;;;;7.13;71.04;100996.78;115862;1199;24697;-78
2021/04/23 08:55:24;;;;;;;24.00;4.00;;;;;;;7.31;71.66;100991.52;115902;1202;23621;-79
2021/04/23 08:57:54;;;;;;;14.33;2.80;;;;;;;7.59;70.52;100994.72;115836;1200;23127;-79
2021/04/23 09:00:23;;;;;;;17.20;3.40;;;;;;;7.74;70.34;101004.97;116262;1200;23144;-80
2021/04/23 09:02:52;;;;;;;15.90;3.80;;;;;;;7.79;69.57;101001.66;116296;1200;29123;-80
2021/04/23 09:05:20;;;;;;;17.40;3.70;;;;;;;7.71;69.26;100996.75;116070;1199;25984;-80
2021/04/23 09:08:01;;;;;;;12.60;2.50;;;;;;;7.65;68.82;100995.73;116221;1200;23147;-80
2021/04/23 09:10:29;;;;;;;;;;;;;;;7.60;68.17;100999.83;115901;1204;23221;-80
2021/04/23 09:13:10;;;;;;;13.50;2.70;;;;;;;7.49;67.93;101004.89;115810;1199;23582;-80
2021/04/23 09:15:41;;;;;;;17.60;3.90;;;;;;;7.45;69.01;100998.66;115799;1200;23121;-80
2021/04/23 09:18:12;;;;;;;13.37;3.50;;;;;;;7.39;68.74;101005.22;115765;1199;23124;-80
2021/04/23 09:20:46;;;;;;;19.80;3.85;;;;;;;7.28;69.75;101011.06;115728;1200;26785;-80
2021/04/23 09:23:17;;;;;;;15.95;3.75;;;;;;;7.18;70.42;101029.55;115805;1203;23143;-80
2021/04/23 09:25:49;;;;;;;14.27;3.63;;;;;;;7.00;70.58;101034.79;116207;1199;24798;-81
2021/04/23 09:28:34;;;;;;;11.40;2.60;;;;;;;6.72;71.47;101038.28;116340;1199;27092;-80
2021/04/23 09:31:21;;;;;;;15.80;3.60;;;;;;;6.51;71.79;101033.24;116423;1200;23235;-80
2021/04/23 09:33:51;;;;;;;12.80;3.00;;;;;;;6.37;72.16;101022.48;116447;1199;23118;-80
2021/04/23 09:36:31;;;;;;;16.00;3.80;;;;;;;6.31;72.59;101024.97;116485;1200;23118;-81
2021/04/23 09:39:12;;;;;;;17.53;4.73;;;;;;;6.36;73.33;101023.69;116402;1199;23115;-81
2021/04/23 09:41:42;;;;;;;17.83;4.73;;;;;;;6.39;73.13;101026.36;116280;1199;23215;-81
2021/04/23 09:44:29;;;;;;;20.35;6.70;;;;;;;6.45;73.49;101019.12;116246;1199;23263;-80
2021/04/23 09:47:13;;;;;;;20.50;5.73;;;;;;;6.60;74.13;101016.00;116492;1199;23378;-80
2021/04/23 09:49:43;;;;;;;21.63;5.93;;;;;;;6.75;73.68;101017.19;116005;1199;23157;-81
2021/04/23 09:52:13;;;;;;;21.07;5.07;;;;;;;6.84;73.53;101012.61;116340;1199;23124;-80
2021/04/23 09:54:47;;;;;;;16.93;4.98;;;;;;;6.96;73.58;101005.56;116559;1200;23141;-81
2021/04/23 09:57:17;;;;;;;20.05;5.95;;;;;;;7.08;73.42;101002.06;116387;1200;23141;-80
2021/04/23 09:59:51;;;;;;;20.25;4.40;;;;;;;7.17;72.02;100997.46;116427;1199;23269;-80
2021/04/23 10:02:22;;;;;;;23.25;5.45;;;;;;;7.22;72.91;101012.81;116333;1199;26410;-80
2021/04/23 10:04:51;;;;;;;13.25;2.95;;;;;;;7.20;70.38;101021.56;116356;1200;24564;-80
2021/04/23 10:07:22;;;;;;;10.40;2.57;;;;;;;7.08;69.25;101025.06;116383;1199;23437;-80
2021/04/23 10:09:56;;;;;;;13.40;2.70;;;;;;;7.05;69.85;101012.06;115765;1199;23189;-79
2021/04/23 10:12:40;;;;;;;15.70;2.60;;;;;;;7.14;70.22;101016.97;115812;1200;23148;-80
